createdAt,value
2019-06-08T00:01:35.091Z,16.11
2019-06-08T00:04:05.843Z,16.10
2019-06-08T00:06:36.291Z,16.09
2019-06-08T00:09:07.711Z,16.00
2019-06-08T00:11:38.176Z,15.94
2019-06-08T00:14:08.550Z,15.83
2019-06-08T00:16:39.303Z,15.83
2019-06-08T00:19:13.886Z,15.82
2019-06-08T00:21:48.923Z,15.76
2019-06-08T00:24:24.158Z,15.73
2019-06-08T00:26:54.944Z,15.72
2019-06-08T00:29:25.428Z,15.55
2019-06-08T00:31:57.081Z,15.57
2019-06-08T00:34:29.041Z,15.51
2019-06-08T00:36:59.576Z,15.44
2019-06-08T00:39:29.972Z,15.38
2019-06-08T00:42:00.413Z,15.33
2019-06-08T00:44:31.305Z,15.29
2019-06-08T00:47:01.904Z,15.26
2019-06-08T00:49:32.324Z,15.29
2019-06-08T00:52:02.781Z,15.33
2019-06-08T00:54:33.241Z,15.35
2019-06-08T00:57:08.024Z,15.31
2019-06-08T00:59:44.938Z,15.36
2019-06-08T01:02:15.476Z,15.35
2019-06-08T01:04:46.670Z,15.19
2019-06-08T01:07:17.914Z,15.15
2019-06-08T01:09:48.564Z,15.16
2019-06-08T01:12:22.600Z,15.19
2019-06-08T01:14:53.107Z,15.20
2019-06-08T01:17:25.057Z,15.18
2019-06-08T01:19:55.612Z,15.14
2019-06-08T01:22:27.612Z,15.07
2019-06-08T01:24:58.377Z,15.06
2019-06-08T01:27:30.150Z,14.98
2019-06-08T01:30:03.229Z,14.93
2019-06-08T01:32:59.856Z,14.91
2019-06-08T01:35:30.926Z,14.88
2019-06-08T01:38:01.519Z,14.80
2019-06-08T01:40:34.617Z,14.76
2019-06-08T01:43:05.085Z,14.71
2019-06-08T01:45:35.682Z,14.67
2019-06-08T01:48:19.839Z,14.52
2019-06-08T01:50:42.549Z,14.40
2019-06-08T01:53:20.736Z,14.39
2019-06-08T01:55:55.067Z,14.37
2019-06-08T01:58:29.406Z,14.30
2019-06-08T02:01:06.138Z,14.32
2019-06-08T02:03:36.553Z,14.36
2019-06-08T02:06:06.976Z,14.36
2019-06-08T02:08:37.371Z,14.28
2019-06-08T02:11:07.817Z,14.23
2019-06-08T02:13:38.646Z,14.17
2019-06-08T02:16:10.342Z,14.13
2019-06-08T02:18:50.077Z,14.10
2019-06-08T02:21:13.084Z,14.06
2019-06-08T02:23:43.455Z,13.94
2019-06-08T02:26:16.303Z,13.87
2019-06-08T02:28:47.089Z,13.82
2019-06-08T02:31:17.573Z,13.76
2019-06-08T02:33:47.957Z,13.61
2019-06-08T02:36:18.398Z,13.59
2019-06-08T02:38:48.831Z,13.54
2019-06-08T02:41:19.602Z,13.48
2019-06-08T02:43:50.108Z,13.45
2019-06-08T02:46:20.648Z,13.38
2019-06-08T02:49:03.301Z,13.38
2019-06-08T02:51:26.037Z,13.41
2019-06-08T02:53:56.439Z,13.46
2019-06-08T02:56:27.263Z,13.42
2019-06-08T02:58:59.978Z,13.41
2019-06-08T03:01:31.393Z,13.46
2019-06-08T03:04:02.010Z,13.47
2019-06-08T03:06:34.243Z,13.53
2019-06-08T03:09:09.809Z,13.64
2019-06-08T03:11:41.307Z,13.63
2019-06-08T03:14:11.962Z,13.64
2019-06-08T03:16:43.528Z,13.63
2019-06-08T03:19:21.823Z,13.64
2019-06-08T03:21:46.216Z,13.69
2019-06-08T03:24:19.842Z,13.67
2019-06-08T03:26:50.295Z,13.66
2019-06-08T03:29:20.789Z,13.77
2019-06-08T03:31:56.838Z,13.77
2019-06-08T03:34:26.689Z,13.78
2019-06-08T03:36:58.496Z,13.74
2019-06-08T03:39:29.623Z,13.82
2019-06-08T03:42:00.068Z,13.85
2019-06-08T03:44:30.832Z,13.87
2019-06-08T03:47:01.613Z,13.87
2019-06-08T03:49:43.126Z,13.86
2019-06-08T03:52:04.129Z,13.82
2019-06-08T03:54:36.151Z,13.78
2019-06-08T03:57:06.818Z,13.83
2019-06-08T03:59:38.551Z,13.78
2019-06-08T04:02:09.580Z,13.81
2019-06-08T04:04:41.843Z,13.85
2019-06-08T04:07:15.678Z,13.87
2019-06-08T04:09:46.183Z,13.88
2019-06-08T04:12:17.082Z,13.84
2019-06-08T04:14:47.520Z,13.87
2019-06-08T04:17:17.902Z,13.95
2019-06-08T04:20:08.720Z,13.98
2019-06-08T04:22:20.978Z,13.94
2019-06-08T04:24:51.592Z,13.98
2019-06-08T04:27:22.037Z,13.98
2019-06-08T04:29:52.686Z,14.01
2019-06-08T04:32:23.484Z,14.04
2019-06-08T04:34:53.972Z,14.04
2019-06-08T04:37:24.412Z,14.08
2019-06-08T04:39:54.882Z,14.13
2019-06-08T04:42:26.372Z,14.23
2019-06-08T04:44:56.849Z,14.26
2019-06-08T04:47:28.147Z,14.25
2019-06-08T04:49:58.643Z,14.23
2019-06-08T04:52:32.090Z,14.24
2019-06-08T04:55:03.505Z,14.18
2019-06-08T04:57:33.925Z,14.13
2019-06-08T05:00:12.336Z,14.13
2019-06-08T05:02:42.178Z,14.20
2019-06-08T05:05:11.338Z,14.20
2019-06-08T05:07:45.933Z,14.20
2019-06-08T05:10:23.389Z,14.20
2019-06-08T05:12:56.878Z,14.17
2019-06-08T05:15:27.345Z,14.18
2019-06-08T05:17:58.075Z,14.15
2019-06-08T05:20:38.478Z,14.20
2019-06-08T05:23:02.743Z,14.28
2019-06-08T05:25:36.327Z,14.24
2019-06-08T05:28:13.162Z,14.22
2019-06-08T05:30:43.721Z,14.28
2019-06-08T05:33:15.302Z,14.27
2019-06-08T05:35:53.194Z,14.25
2019-06-08T05:38:26.825Z,14.26
2019-06-08T05:40:57.334Z,14.25
2019-06-08T05:43:29.622Z,14.26
2019-06-08T05:46:04.935Z,14.24
2019-06-08T05:48:39.707Z,14.19
2019-06-08T05:51:10.762Z,14.18
2019-06-08T05:53:41.663Z,14.13
2019-06-08T05:56:12.719Z,14.10
2019-06-08T05:58:43.942Z,14.06
2019-06-08T06:01:15.652Z,14.08
2019-06-08T06:03:51.485Z,14.05
2019-06-08T06:06:21.613Z,14.09
2019-06-08T06:08:52.802Z,14.06
2019-06-08T06:11:23.630Z,14.10
2019-06-08T06:13:57.188Z,14.16
2019-06-08T06:16:27.639Z,14.18
2019-06-08T06:18:58.081Z,14.20
2019-06-08T06:21:28.774Z,14.26
2019-06-08T06:24:01.080Z,14.28
2019-06-08T06:26:37.727Z,14.21
2019-06-08T06:29:08.377Z,14.17
2019-06-08T06:31:41.628Z,14.16
2019-06-08T06:34:12.332Z,14.12
2019-06-08T06:36:43.857Z,14.10
2019-06-08T06:39:14.528Z,14.14
2019-06-08T06:41:45.957Z,14.18
2019-06-08T06:44:16.444Z,14.23
2019-06-08T06:46:47.991Z,14.35
2019-06-08T06:49:18.627Z,14.42
2019-06-08T06:51:50.538Z,14.41
2019-06-08T06:54:21.013Z,14.50
2019-06-08T06:56:51.902Z,14.58
2019-06-08T06:59:22.974Z,14.73
2019-06-08T07:01:57.273Z,14.86
2019-06-08T07:04:25.625Z,15.11
2019-06-08T07:06:56.833Z,15.43
2019-06-08T07:09:27.280Z,15.68
2019-06-08T07:11:57.855Z,15.82
2019-06-08T07:14:28.368Z,15.83
2019-06-08T07:16:59.130Z,15.88
2019-06-08T07:19:30.718Z,15.84
2019-06-08T07:22:01.960Z,15.82
2019-06-08T07:24:33.497Z,15.78
2019-06-08T07:27:16.087Z,15.95
2019-06-08T07:29:47.225Z,16.01
2019-06-08T07:32:18.174Z,15.89
2019-06-08T07:34:50.426Z,15.86
2019-06-08T07:37:21.178Z,15.74
2019-06-08T07:39:51.731Z,15.75
2019-06-08T07:42:25.152Z,15.85
2019-06-08T07:44:55.930Z,15.76
2019-06-08T07:47:27.079Z,15.67
2019-06-08T07:49:57.562Z,15.53
2019-06-08T07:52:28.228Z,15.56
2019-06-08T07:54:58.843Z,15.52
2019-06-08T07:57:29.297Z,15.49
2019-06-08T08:00:00.148Z,15.44
2019-06-08T08:02:32.571Z,15.52
2019-06-08T08:05:07.169Z,15.53
2019-06-08T08:07:37.594Z,15.56
2019-06-08T08:10:08.340Z,15.57
2019-06-08T08:12:39.414Z,15.57
2019-06-08T08:15:09.905Z,15.56
2019-06-08T08:17:40.363Z,15.51
2019-06-08T08:20:10.911Z,15.39
2019-06-08T08:22:42.978Z,15.36
2019-06-08T08:25:14.292Z,15.21
2019-06-08T08:27:47.866Z,15.20
2019-06-08T08:30:21.190Z,15.14
2019-06-08T08:32:53.284Z,15.13
2019-06-08T08:35:24.018Z,15.21
2019-06-08T08:37:57.031Z,15.33
2019-06-08T08:40:30.285Z,15.50
2019-06-08T08:43:01.633Z,15.73
2019-06-08T08:45:33.703Z,15.89
2019-06-08T08:48:20.661Z,15.99
2019-06-08T08:50:38.306Z,15.98
2019-06-08T08:53:24.091Z,16.04
2019-06-08T08:56:02.072Z,16.17
2019-06-08T08:58:31.184Z,16.31
2019-06-08T09:01:07.968Z,16.47
2019-06-08T09:03:39.591Z,16.63
2019-06-08T09:06:11.473Z,16.59
2019-06-08T09:08:42.368Z,16.63
2019-06-08T09:11:17.572Z,16.56
2019-06-08T09:14:01.395Z,16.33
2019-06-08T09:16:38.418Z,16.33
2019-06-08T09:19:08.827Z,16.36
2019-06-08T09:21:39.549Z,16.51
2019-06-08T09:24:10.110Z,16.63
2019-06-08T09:26:47.900Z,16.83
2019-06-08T09:29:19.042Z,17.27
2019-06-08T09:31:52.208Z,17.95
2019-06-08T09:34:22.696Z,18.52
2019-06-08T09:40:09.112Z,19.87
2019-06-08T09:42:41.062Z,19.88
2019-06-08T09:45:29.109Z,19.61
2019-06-08T09:48:01.799Z,19.21
2019-06-08T09:50:32.013Z,19.00
2019-06-08T09:53:21.771Z,19.67
2019-06-08T09:55:41.186Z,20.42
2019-06-08T09:58:11.700Z,20.21
2019-06-08T10:00:41.202Z,20.42
2019-06-08T10:03:13.507Z,20.44
2019-06-08T10:05:48.423Z,20.00
2019-06-08T10:08:20.607Z,19.91
2019-06-08T10:11:05.954Z,20.10
2019-06-08T10:13:42.963Z,20.02
2019-06-08T10:16:11.680Z,20.57
2019-06-08T10:18:51.147Z,20.78
2019-06-08T10:21:23.433Z,21.08
2019-06-08T10:24:09.274Z,21.52
2019-06-08T10:26:33.343Z,22.21
2019-06-08T10:29:09.059Z,22.20
2019-06-08T10:31:48.324Z,22.57
2019-06-08T10:34:19.175Z,21.94
2019-06-08T10:37:03.351Z,21.76
2019-06-08T10:39:32.341Z,22.02
2019-06-08T10:42:09.389Z,21.83
2019-06-08T10:44:38.442Z,21.36
2019-06-08T10:47:12.161Z,21.74
2019-06-08T10:49:42.812Z,21.81
2019-06-08T10:52:13.183Z,22.36
2019-06-08T10:54:45.202Z,22.61
2019-06-08T10:57:18.244Z,22.33
2019-06-08T10:59:48.796Z,22.10
2019-06-08T11:02:22.028Z,22.29
2019-06-08T11:04:52.457Z,22.33
2019-06-08T11:07:23.142Z,22.40
2019-06-08T11:10:11.674Z,22.46
2019-06-08T11:12:39.064Z,22.50
2019-06-08T11:15:11.660Z,22.78
2019-06-08T11:17:42.352Z,23.14
2019-06-08T11:20:13.802Z,23.46
2019-06-08T11:22:49.773Z,23.48
2019-06-08T11:25:20.217Z,22.78
2019-06-08T11:27:54.705Z,23.01
2019-06-08T11:30:30.422Z,23.05
2019-06-08T11:33:12.415Z,22.88
2019-06-08T11:35:58.166Z,22.81
2019-06-08T11:38:28.977Z,22.87
2019-06-08T11:41:04.621Z,23.12
2019-06-08T11:43:43.883Z,22.75
2019-06-08T11:46:21.472Z,22.44
2019-06-08T11:48:51.313Z,22.09
2019-06-08T11:54:32.806Z,22.04
2019-06-08T11:56:53.744Z,21.91
2019-06-08T11:59:31.771Z,21.77
2019-06-08T12:02:03.458Z,21.73
2019-06-08T12:04:38.442Z,21.97
2019-06-08T12:07:25.227Z,21.95
2019-06-08T12:09:58.323Z,22.00
2019-06-08T12:12:28.297Z,21.66
2019-06-08T12:14:58.789Z,21.94
2019-06-08T12:17:29.274Z,21.91
2019-06-08T12:20:14.035Z,21.88
2019-06-08T12:22:41.207Z,21.57
2019-06-08T12:25:33.035Z,21.34
2019-06-08T12:28:04.576Z,21.12
2019-06-08T12:30:35.103Z,21.07
2019-06-08T12:33:09.403Z,21.03
2019-06-08T12:35:39.786Z,20.85
2019-06-08T12:38:12.391Z,20.74
2019-06-08T12:40:42.483Z,20.73
2019-06-08T12:43:23.862Z,20.70
2019-06-08T12:45:54.309Z,20.58
2019-06-08T12:48:28.724Z,20.53
2019-06-08T12:50:59.381Z,20.64
2019-06-08T12:53:29.804Z,20.63
2019-06-08T12:56:00.659Z,20.59
2019-06-08T12:58:31.122Z,20.74
2019-06-08T13:01:04.675Z,20.63
2019-06-08T13:03:38.259Z,20.58
2019-06-08T13:06:09.618Z,20.43
2019-06-08T13:08:59.853Z,20.54
2019-06-08T13:11:30.362Z,20.60
2019-06-08T13:14:02.181Z,20.40
2019-06-08T13:16:33.020Z,20.42
2019-06-08T13:19:03.678Z,20.69
2019-06-08T13:21:35.697Z,20.76
2019-06-08T13:24:08.363Z,20.80
2019-06-08T13:26:39.537Z,20.85
2019-06-08T13:29:22.194Z,21.13
2019-06-08T13:31:54.324Z,20.80
2019-06-08T13:34:24.942Z,21.04
2019-06-08T13:36:55.585Z,21.16
2019-06-08T13:39:38.763Z,21.28
2019-06-08T13:42:13.200Z,21.32
2019-06-08T13:44:47.529Z,21.34
2019-06-08T13:47:40.947Z,21.42
2019-06-08T13:50:13.030Z,21.67
2019-06-08T13:52:44.129Z,21.70
2019-06-08T13:55:38.778Z,21.82
2019-06-08T13:57:51.209Z,22.05
2019-06-08T14:00:32.960Z,22.15
2019-06-08T14:03:03.767Z,22.08
2019-06-08T14:05:34.213Z,21.85
2019-06-08T14:08:10.982Z,22.17
2019-06-08T14:10:43.909Z,22.52
2019-06-08T14:13:15.103Z,22.32
2019-06-08T14:16:03.892Z,22.21
2019-06-08T14:18:34.482Z,22.32
2019-06-08T14:21:05.157Z,22.57
2019-06-08T14:23:35.767Z,22.88
2019-06-08T14:26:08.186Z,23.30
2019-06-08T14:28:39.044Z,23.45
2019-06-08T14:31:10.918Z,23.83
2019-06-08T14:33:41.835Z,23.68
2019-06-08T14:36:12.287Z,23.53
2019-06-08T14:38:45.793Z,23.84
2019-06-08T14:41:29.814Z,24.08
2019-06-08T14:44:01.072Z,23.98
2019-06-08T14:46:31.490Z,24.02
2019-06-08T14:49:03.351Z,24.01
2019-06-08T14:51:52.548Z,23.68
2019-06-08T14:54:26.640Z,23.77
2019-06-08T14:57:03.092Z,23.75
2019-06-08T14:59:35.591Z,23.98
2019-06-08T15:02:19.346Z,24.27
2019-06-08T15:04:57.224Z,24.06
2019-06-08T15:07:32.640Z,23.81
2019-06-08T15:10:11.886Z,24.00
2019-06-08T15:12:57.741Z,24.20
2019-06-08T15:15:30.731Z,24.21
2019-06-08T15:18:04.897Z,23.62
2019-06-08T15:20:34.102Z,23.46
2019-06-08T15:23:04.894Z,23.53
2019-06-08T15:25:35.590Z,23.82
2019-06-08T15:28:14.692Z,23.86
2019-06-08T15:30:45.206Z,22.98
2019-06-08T15:33:18.188Z,22.64
2019-06-08T15:35:48.866Z,22.86
2019-06-08T15:38:25.349Z,23.27
2019-06-08T15:41:07.913Z,22.95
2019-06-08T15:43:42.580Z,22.89
2019-06-08T15:46:26.379Z,22.85
2019-06-08T15:49:08.475Z,22.91
2019-06-08T15:51:48.095Z,23.28
2019-06-08T15:57:38.086Z,23.30
2019-06-08T16:00:10.175Z,22.94
2019-06-08T16:02:45.825Z,23.06
2019-06-08T16:05:30.261Z,23.13
2019-06-08T16:11:20.940Z,23.80
2019-06-08T16:13:59.104Z,23.74
2019-06-08T16:16:31.134Z,23.89
2019-06-08T16:19:10.805Z,23.90
2019-06-08T16:21:59.282Z,23.81
2019-06-08T16:24:31.860Z,23.73
2019-06-08T16:27:11.334Z,24.06
2019-06-08T16:29:41.969Z,24.02
2019-06-08T16:32:16.047Z,24.05
2019-06-08T16:34:46.641Z,23.96
2019-06-08T16:40:17.682Z,23.98
2019-06-08T16:42:50.983Z,23.74
2019-06-08T16:45:21.446Z,23.85
2019-06-08T16:47:53.124Z,23.45
2019-06-08T16:50:28.051Z,23.24
2019-06-08T16:52:59.272Z,23.27
2019-06-08T16:55:29.773Z,23.31
2019-06-08T16:58:00.269Z,23.32
2019-06-08T17:00:37.141Z,23.40
2019-06-08T17:03:07.198Z,23.43
2019-06-08T17:05:38.537Z,23.09
2019-06-08T17:08:09.217Z,23.01
2019-06-08T17:10:42.180Z,22.81
2019-06-08T17:13:14.328Z,22.74
2019-06-08T17:15:53.044Z,22.71
2019-06-08T17:18:23.896Z,22.74
2019-06-08T17:20:54.741Z,22.73
2019-06-08T17:23:25.263Z,22.52
2019-06-08T17:26:07.148Z,22.19
2019-06-08T17:28:45.082Z,21.97
2019-06-08T17:31:15.524Z,22.02
2019-06-08T17:34:01.532Z,21.96
2019-06-08T17:36:37.110Z,21.71
2019-06-08T17:39:08.122Z,21.51
2019-06-08T17:41:40.242Z,21.49
2019-06-08T17:44:10.838Z,21.28
2019-06-08T17:46:44.551Z,21.06
2019-06-08T17:49:18.171Z,20.87
2019-06-08T17:51:50.024Z,20.68
2019-06-08T17:54:20.483Z,20.51
2019-06-08T17:56:51.193Z,20.27
2019-06-08T17:59:23.567Z,20.08
2019-06-08T18:01:54.375Z,19.85
2019-06-08T18:04:25.202Z,19.56
2019-06-08T18:07:03.774Z,19.40
2019-06-08T18:09:45.173Z,19.17
2019-06-08T18:12:18.270Z,18.94
2019-06-08T18:14:54.350Z,18.71
2019-06-08T18:17:27.851Z,18.56
2019-06-08T18:20:11.759Z,18.45
2019-06-08T18:22:49.384Z,18.27
2019-06-08T18:25:17.582Z,18.10
2019-06-08T18:30:45.107Z,17.78
2019-06-08T18:33:18.079Z,17.64
2019-06-08T18:35:49.429Z,17.53
2019-06-08T18:38:27.273Z,17.43
2019-06-08T18:40:58.649Z,17.29
2019-06-08T18:43:35.432Z,17.12
2019-06-08T18:46:07.069Z,17.02
2019-06-08T18:48:42.166Z,16.92
2019-06-08T18:51:17.568Z,16.76
2019-06-08T18:54:06.736Z,16.62
2019-06-08T18:56:22.718Z,16.45
2019-06-08T18:58:58.180Z,16.30
2019-06-08T19:01:32.779Z,16.16
2019-06-08T19:04:04.733Z,15.99
2019-06-08T19:06:48.751Z,15.84
2019-06-08T19:09:19.307Z,15.75
2019-06-08T19:11:57.523Z,15.53
2019-06-08T19:14:31.095Z,15.41
2019-06-08T19:17:02.103Z,15.31
2019-06-08T19:19:38.511Z,15.23
2019-06-08T19:22:12.345Z,15.19
2019-06-08T19:25:02.104Z,15.24
2019-06-08T19:27:45.891Z,15.22
2019-06-08T19:30:29.425Z,15.14
2019-06-08T19:32:59.956Z,15.08
2019-06-08T19:35:53.745Z,15.04
2019-06-08T19:38:24.801Z,15.01
2019-06-08T19:40:57.261Z,14.87
2019-06-08T19:43:32.043Z,14.74
2019-06-08T19:46:04.008Z,14.53
2019-06-08T19:48:42.791Z,14.37
2019-06-08T19:51:13.066Z,14.20
2019-06-08T19:53:49.271Z,14.05
2019-06-08T19:56:21.385Z,13.90
2019-06-08T19:59:00.912Z,13.77
2019-06-08T20:01:24.200Z,13.56
2019-06-08T20:03:55.004Z,13.43
2019-06-08T20:06:37.965Z,13.29
2019-06-08T20:09:08.355Z,13.19
2019-06-08T20:11:55.531Z,13.07
2019-06-08T20:14:28.724Z,12.95
2019-06-08T20:17:11.724Z,12.86
2019-06-08T20:19:44.813Z,12.74
2019-06-08T20:22:19.444Z,12.65
2019-06-08T20:24:55.287Z,12.59
2019-06-08T20:27:29.244Z,12.53
2019-06-08T20:30:08.064Z,12.42
2019-06-08T20:32:37.849Z,12.33
2019-06-08T20:35:11.901Z,12.27
2019-06-08T20:37:43.569Z,12.21
2019-06-08T20:40:29.607Z,12.12
2019-06-08T20:43:00.286Z,12.00
2019-06-08T20:45:30.710Z,11.92
2019-06-08T20:48:01.159Z,11.81
2019-06-08T20:50:32.012Z,11.75
2019-06-08T20:53:08.142Z,11.72
2019-06-08T20:55:43.065Z,11.68
2019-06-08T20:58:30.405Z,11.64
2019-06-08T21:01:01.359Z,11.54
2019-06-08T21:03:43.576Z,11.49
2019-06-08T21:06:17.138Z,11.42
2019-06-08T21:08:53.272Z,11.34
2019-06-08T21:11:27.143Z,11.29
2019-06-08T21:14:05.932Z,11.22
2019-06-08T21:16:44.671Z,11.13
2019-06-08T21:19:24.222Z,11.09
2019-06-08T21:21:56.033Z,11.15
2019-06-08T21:24:30.258Z,11.22
2019-06-08T21:27:03.023Z,11.20
2019-06-08T21:29:47.723Z,11.15
2019-06-08T21:32:13.247Z,11.07
2019-06-08T21:34:50.858Z,11.00
2019-06-08T21:37:28.193Z,10.96
2019-06-08T21:40:03.600Z,10.89
2019-06-08T21:42:37.395Z,10.82
2019-06-08T21:45:29.910Z,10.75
2019-06-08T21:48:03.895Z,10.74
2019-06-08T21:50:48.960Z,10.67
2019-06-08T21:53:32.902Z,10.67
2019-06-08T21:56:20.473Z,10.62
2019-06-08T21:58:53.166Z,10.57
2019-06-08T22:01:28.428Z,10.57
2019-06-08T22:04:02.634Z,10.58
2019-06-08T22:06:37.300Z,10.52
2019-06-08T22:09:11.159Z,10.48
2019-06-08T22:11:43.620Z,10.43
2019-06-08T22:14:27.211Z,10.40
2019-06-08T22:17:00.127Z,10.34
2019-06-08T22:19:33.045Z,10.31
2019-06-08T22:22:08.177Z,10.27
2019-06-08T22:24:42.160Z,10.25
2019-06-08T22:27:12.673Z,10.22
2019-06-08T22:29:48.325Z,10.19
2019-06-08T22:32:18.195Z,10.18
2019-06-08T22:35:11.730Z,10.15
2019-06-08T22:37:45.160Z,10.10
2019-06-08T22:40:17.557Z,10.03
2019-06-08T22:42:52.832Z,9.97
2019-06-08T22:45:29.077Z,9.96
2019-06-08T22:48:01.824Z,9.93
2019-06-08T22:50:47.660Z,9.95
2019-06-08T22:53:19.128Z,9.91
2019-06-08T22:55:50.055Z,9.93
2019-06-08T22:58:23.822Z,9.87
2019-06-08T23:00:57.041Z,9.82
2019-06-08T23:03:26.394Z,9.75
2019-06-08T23:06:05.621Z,9.76
2019-06-08T23:08:43.197Z,9.71
2019-06-08T23:11:14.976Z,9.65
2019-06-08T23:13:49.097Z,9.61
2019-06-08T23:16:21.579Z,9.57
2019-06-08T23:18:57.271Z,9.54
2019-06-08T23:21:27.558Z,9.54
2019-06-08T23:23:59.865Z,9.53
2019-06-08T23:26:34.232Z,9.52
2019-06-08T23:29:09.694Z,9.50
2019-06-08T23:34:32.320Z,9.42
2019-06-08T23:37:06.593Z,9.42
2019-06-08T23:39:38.982Z,9.41
2019-06-08T23:42:09.962Z,9.38
2019-06-08T23:44:41.576Z,9.36
2019-06-08T23:47:12.105Z,9.33
2019-06-08T23:49:47.477Z,9.28
2019-06-08T23:52:20.908Z,9.32
2019-06-08T23:54:52.823Z,9.32
2019-06-08T23:57:29.594Z,9.33
